createdAt,value
2019-06-08T00:00:18.523Z,16.20
2019-06-08T00:02:46.820Z,16.10
2019-06-08T00:05:16.801Z,16.30
2019-06-08T00:07:45.235Z,16.10
2019-06-08T00:10:14.682Z,16.30
2019-06-08T00:12:44.073Z,16.00
2019-06-08T00:15:12.062Z,16.00
2019-06-08T00:17:40.243Z,15.90
2019-06-08T00:20:08.737Z,15.90
2019-06-08T00:22:37.764Z,15.80
2019-06-08T00:25:08.158Z,15.90
2019-06-08T00:27:35.651Z,15.90
2019-06-08T00:30:02.953Z,15.80
2019-06-08T00:32:31.693Z,16.20
2019-06-08T00:34:58.927Z,15.80
2019-06-08T00:37:27.660Z,15.70
2019-06-08T00:39:56.682Z,16.00
2019-06-08T00:42:25.511Z,15.70
2019-06-08T00:44:53.087Z,15.80
2019-06-08T00:47:22.597Z,15.80
2019-06-08T00:49:50.004Z,15.70
2019-06-08T00:52:18.916Z,15.70
2019-06-08T00:54:46.188Z,15.70
2019-06-08T00:57:14.331Z,15.70
2019-06-08T00:59:42.516Z,15.70
2019-06-08T01:02:13.923Z,15.70
2019-06-08T01:04:42.253Z,15.70
2019-06-08T01:07:10.407Z,15.80
2019-06-08T01:09:38.587Z,15.80
2019-06-08T01:12:06.750Z,15.80
2019-06-08T01:14:34.915Z,15.80
2019-06-08T01:17:03.097Z,15.70
2019-06-08T01:19:31.291Z,15.70
2019-06-08T01:21:59.712Z,15.60
2019-06-08T01:24:28.037Z,15.70
2019-06-08T01:26:56.368Z,15.70
2019-06-08T01:29:26.220Z,15.70
2019-06-08T01:31:54.350Z,15.50
2019-06-08T01:34:22.823Z,15.50
2019-06-08T01:36:51.659Z,15.50
2019-06-08T01:39:21.113Z,15.60
2019-06-08T01:41:49.636Z,15.50
2019-06-08T01:44:18.323Z,15.70
2019-06-08T01:46:46.956Z,15.40
2019-06-08T01:49:15.268Z,15.30
2019-06-08T01:51:44.115Z,15.40
2019-06-08T01:54:11.611Z,15.40
2019-06-08T01:56:39.823Z,15.30
2019-06-08T01:59:08.260Z,15.30
2019-06-08T02:01:36.719Z,15.20
2019-06-08T02:04:05.452Z,15.20
2019-06-08T02:06:35.653Z,15.20
2019-06-08T02:09:06.428Z,15.30
2019-06-08T02:11:35.029Z,15.30
2019-06-08T02:14:04.100Z,15.30
2019-06-08T02:16:33.367Z,15.30
2019-06-08T02:19:00.883Z,15.40
2019-06-08T02:21:28.875Z,15.50
2019-06-08T02:23:57.321Z,15.30
2019-06-08T02:26:27.556Z,15.30
2019-06-08T02:28:55.805Z,15.20
2019-06-08T02:31:24.000Z,15.40
2019-06-08T02:33:52.323Z,15.10
2019-06-08T02:36:20.564Z,15.20
2019-06-08T02:38:48.789Z,15.20
2019-06-08T02:41:16.368Z,15.10
2019-06-08T02:43:44.591Z,15.10
2019-06-08T02:46:12.805Z,15.30
2019-06-08T02:49:02.455Z,15.20
2019-06-08T02:51:10.580Z,15.00
2019-06-08T02:53:39.227Z,15.20
2019-06-08T02:56:12.061Z,15.50
2019-06-08T02:58:41.800Z,15.30
2019-06-08T03:01:10.140Z,15.40
2019-06-08T03:03:40.261Z,15.40
2019-06-08T03:06:08.776Z,15.40
2019-06-08T03:08:39.307Z,15.30
2019-06-08T03:11:07.381Z,15.70
2019-06-08T03:13:37.449Z,15.50
2019-06-08T03:16:05.905Z,15.30
2019-06-08T03:18:35.699Z,15.50
2019-06-08T03:21:03.133Z,15.30
2019-06-08T03:23:31.889Z,15.30
2019-06-08T03:26:00.663Z,15.40
2019-06-08T03:28:29.065Z,15.30
2019-06-08T03:30:58.135Z,15.30
2019-06-08T03:33:26.615Z,15.30
2019-06-08T03:35:57.843Z,15.20
2019-06-08T03:38:23.284Z,15.20
2019-06-08T03:40:51.610Z,15.20
2019-06-08T03:43:20.201Z,15.30
2019-06-08T03:45:47.782Z,15.30
2019-06-08T03:48:16.004Z,15.30
2019-06-08T03:50:44.471Z,15.50
2019-06-08T03:53:13.700Z,15.30
2019-06-08T03:55:43.011Z,15.30
2019-06-08T03:58:11.984Z,15.30
2019-06-08T04:00:40.476Z,15.40
2019-06-08T04:03:08.768Z,15.40
2019-06-08T04:05:37.863Z,15.30
2019-06-08T04:08:07.480Z,15.50
2019-06-08T04:10:37.528Z,15.20
2019-06-08T04:13:06.273Z,15.30
2019-06-08T04:15:34.906Z,15.10
2019-06-08T04:18:03.465Z,15.30
2019-06-08T04:20:32.244Z,15.00
2019-06-08T04:23:00.894Z,14.60
2019-06-08T04:25:28.211Z,14.80
2019-06-08T04:27:56.395Z,14.80
2019-06-08T04:30:24.692Z,14.80
2019-06-08T04:32:52.879Z,14.80
2019-06-08T04:35:21.213Z,15.20
2019-06-08T04:37:50.494Z,14.90
2019-06-08T04:40:18.575Z,14.90
2019-06-08T04:42:46.688Z,14.90
2019-06-08T04:45:15.364Z,14.90
2019-06-08T04:47:45.369Z,14.70
2019-06-08T04:50:22.439Z,14.70
2019-06-08T04:52:44.934Z,14.90
2019-06-08T04:55:13.441Z,15.50
2019-06-08T04:57:43.323Z,15.00
2019-06-08T05:00:13.000Z,15.00
2019-06-08T05:02:43.963Z,15.20
2019-06-08T05:05:12.256Z,14.80
2019-06-08T05:07:43.581Z,14.80
2019-06-08T05:10:12.365Z,15.10
2019-06-08T05:12:41.253Z,14.90
2019-06-08T05:15:10.493Z,14.80
2019-06-08T05:17:39.380Z,14.90
2019-06-08T05:20:08.018Z,14.90
2019-06-08T05:22:36.340Z,14.90
2019-06-08T05:25:05.055Z,15.00
2019-06-08T05:27:33.481Z,14.80
2019-06-08T05:30:08.364Z,14.80
2019-06-08T05:32:32.384Z,14.90
2019-06-08T05:35:01.216Z,14.90
2019-06-08T05:37:29.713Z,15.20
2019-06-08T05:39:58.263Z,15.00
2019-06-08T05:42:27.338Z,15.10
2019-06-08T05:44:55.223Z,15.10
2019-06-08T05:47:22.595Z,14.70
2019-06-08T05:49:51.328Z,14.60
2019-06-08T05:52:20.038Z,14.60
2019-06-08T05:54:48.024Z,14.70
2019-06-08T05:57:15.933Z,14.80
2019-06-08T05:59:44.605Z,14.60
2019-06-08T06:02:13.008Z,14.80
2019-06-08T06:04:42.391Z,15.00
2019-06-08T06:07:09.711Z,14.70
2019-06-08T06:09:37.908Z,14.70
2019-06-08T06:12:06.139Z,14.70
2019-06-08T06:14:36.878Z,14.80
2019-06-08T06:17:04.738Z,14.90
2019-06-08T06:19:33.043Z,14.70
2019-06-08T06:22:02.267Z,14.70
2019-06-08T06:24:29.437Z,14.70
2019-06-08T06:26:57.526Z,14.60
2019-06-08T06:29:26.777Z,14.80
2019-06-08T06:31:54.078Z,15.00
2019-06-08T06:34:21.880Z,15.00
2019-06-08T06:36:49.907Z,15.10
2019-06-08T06:39:18.715Z,14.90
2019-06-08T06:41:47.898Z,14.70
2019-06-08T06:44:15.146Z,14.80
2019-06-08T06:46:43.985Z,15.00
2019-06-08T06:49:12.302Z,14.60
2019-06-08T06:51:40.868Z,14.70
2019-06-08T06:54:09.319Z,14.60
2019-06-08T06:56:36.859Z,14.80
2019-06-08T06:59:05.056Z,15.00
2019-06-08T07:01:33.336Z,14.80
2019-06-08T07:04:01.776Z,14.80
2019-06-08T07:06:30.080Z,15.20
2019-06-08T07:08:58.286Z,14.60
2019-06-08T07:11:25.478Z,14.90
2019-06-08T07:13:55.023Z,14.90
2019-06-08T07:16:22.400Z,14.80
2019-06-08T07:18:50.451Z,14.90
2019-06-08T07:21:18.558Z,14.90
2019-06-08T07:23:49.521Z,14.80
2019-06-08T07:26:17.026Z,14.80
2019-06-08T07:28:44.339Z,14.80
2019-06-08T07:31:11.606Z,14.50
2019-06-08T07:33:39.857Z,14.80
2019-06-08T07:36:08.055Z,14.60
2019-06-08T07:38:36.241Z,14.70
2019-06-08T07:41:04.469Z,14.70
2019-06-08T07:43:32.561Z,14.70
2019-06-08T07:46:00.880Z,15.30
2019-06-08T07:48:28.071Z,15.20
2019-06-08T07:50:56.526Z,14.90
2019-06-08T07:53:25.095Z,15.20
2019-06-08T07:55:53.561Z,15.10
2019-06-08T07:58:21.897Z,15.20
2019-06-08T08:00:54.351Z,15.40
2019-06-08T08:03:21.836Z,15.40
2019-06-08T08:05:50.307Z,15.30
2019-06-08T08:08:17.629Z,15.30
2019-06-08T08:10:44.810Z,15.30
2019-06-08T08:13:13.124Z,15.10
2019-06-08T08:15:41.314Z,15.30
2019-06-08T08:18:09.413Z,15.10
2019-06-08T08:20:37.611Z,14.70
2019-06-08T08:23:08.983Z,15.30
2019-06-08T08:25:37.875Z,15.20
2019-06-08T08:28:08.069Z,15.10
2019-06-08T08:30:37.592Z,15.90
2019-06-08T08:33:04.340Z,15.60
2019-06-08T08:35:32.614Z,15.80
2019-06-08T08:38:03.892Z,15.70
2019-06-08T08:40:30.735Z,15.70
2019-06-08T08:43:01.486Z,15.90
2019-06-08T08:45:29.086Z,16.00
2019-06-08T08:48:14.491Z,16.10
2019-06-08T08:50:28.306Z,16.40
2019-06-08T08:52:58.978Z,17.10
2019-06-08T08:55:27.980Z,17.00
2019-06-08T08:57:57.080Z,16.70
2019-06-08T09:00:28.129Z,16.40
2019-06-08T09:03:16.174Z,16.20
2019-06-08T09:05:28.116Z,16.00
2019-06-08T09:07:58.781Z,15.70
2019-06-08T09:10:28.068Z,16.10
2019-06-08T09:12:58.885Z,16.30
2019-06-08T09:15:31.201Z,16.20
2019-06-08T09:17:59.807Z,16.60
2019-06-08T09:20:28.580Z,16.30
2019-06-08T09:23:06.451Z,16.30
2019-06-08T09:25:28.038Z,16.30
2019-06-08T09:27:59.089Z,16.30
2019-06-08T09:30:27.529Z,16.20
2019-06-08T09:32:59.091Z,16.60
2019-06-08T09:35:27.870Z,16.90
2019-06-08T09:37:59.429Z,17.00
2019-06-08T09:40:28.843Z,16.70
2019-06-08T09:43:05.375Z,16.70
2019-06-08T09:45:28.802Z,16.80
2019-06-08T09:47:55.540Z,16.90
2019-06-08T09:50:23.764Z,17.00
2019-06-08T09:53:06.461Z,16.50
2019-06-08T09:55:22.028Z,17.00
2019-06-08T09:57:50.130Z,17.40
2019-06-08T10:00:25.268Z,17.20
2019-06-08T10:02:48.783Z,17.00
2019-06-08T10:05:18.482Z,17.00
2019-06-08T10:07:48.687Z,16.90
2019-06-08T10:10:18.179Z,16.80
2019-06-08T10:12:48.401Z,17.00
2019-06-08T10:15:17.918Z,16.60
2019-06-08T10:17:47.624Z,16.40
2019-06-08T10:20:18.385Z,16.40
2019-06-08T10:22:50.005Z,16.80
2019-06-08T10:25:16.362Z,16.60
2019-06-08T10:27:44.680Z,16.70
2019-06-08T10:30:14.715Z,16.80
2019-06-08T10:32:42.029Z,17.00
2019-06-08T10:35:10.859Z,16.60
2019-06-08T10:37:39.035Z,17.00
2019-06-08T10:40:08.122Z,17.10
2019-06-08T10:42:39.907Z,17.20
2019-06-08T10:45:10.437Z,17.40
2019-06-08T10:47:37.918Z,17.30
2019-06-08T10:50:11.179Z,17.40
2019-06-08T10:52:38.949Z,17.40
2019-06-08T10:55:10.374Z,17.40
2019-06-08T10:57:37.534Z,17.50
2019-06-08T11:00:15.653Z,17.50
2019-06-08T11:02:37.569Z,17.40
2019-06-08T11:05:12.175Z,17.50
2019-06-08T11:07:38.070Z,17.70
2019-06-08T11:10:10.200Z,17.90
2019-06-08T11:12:37.693Z,18.10
2019-06-08T11:15:09.287Z,18.60
2019-06-08T11:17:37.847Z,18.20
2019-06-08T11:20:11.162Z,17.90
2019-06-08T11:22:37.426Z,18.00
2019-06-08T11:25:08.288Z,17.90
2019-06-08T11:27:38.614Z,18.10
2019-06-08T11:30:11.684Z,17.60
2019-06-08T11:32:34.688Z,17.60
2019-06-08T11:35:04.190Z,17.50
2019-06-08T11:37:32.766Z,17.60
2019-06-08T11:40:02.146Z,17.70
2019-06-08T11:42:30.789Z,17.80
2019-06-08T11:45:00.291Z,17.80
2019-06-08T11:47:31.032Z,17.90
2019-06-08T11:50:00.418Z,17.80
2019-06-08T11:52:28.589Z,17.80
2019-06-08T11:54:57.337Z,17.80
2019-06-08T11:57:28.350Z,17.90
2019-06-08T11:59:58.468Z,17.80
2019-06-08T12:02:27.218Z,17.80
2019-06-08T12:04:57.287Z,17.90
2019-06-08T12:07:25.603Z,17.80
2019-06-08T12:09:54.460Z,17.90
2019-06-08T12:12:21.807Z,17.60
2019-06-08T12:14:50.291Z,17.70
2019-06-08T12:17:22.191Z,17.50
2019-06-08T12:19:49.315Z,17.40
2019-06-08T12:22:17.953Z,17.60
2019-06-08T12:24:46.498Z,17.50
2019-06-08T12:27:29.584Z,17.40
2019-06-08T12:29:45.363Z,17.50
2019-06-08T12:32:14.329Z,17.50
2019-06-08T12:34:44.085Z,17.60
2019-06-08T12:37:17.965Z,17.50
2019-06-08T12:39:44.068Z,17.80
2019-06-08T12:42:15.668Z,18.00
2019-06-08T12:44:43.644Z,18.10
2019-06-08T12:47:15.027Z,18.50
2019-06-08T12:49:41.542Z,18.60
2019-06-08T12:52:12.408Z,18.70
2019-06-08T12:54:40.343Z,18.70
2019-06-08T12:57:13.030Z,18.70
2019-06-08T12:59:39.578Z,18.80
2019-06-08T13:02:13.992Z,19.00
2019-06-08T13:04:38.839Z,19.10
2019-06-08T13:07:09.750Z,19.00
2019-06-08T13:09:38.405Z,19.00
2019-06-08T13:12:08.029Z,19.10
2019-06-08T13:14:38.485Z,19.20
2019-06-08T13:17:08.745Z,19.10
2019-06-08T13:19:38.581Z,19.00
2019-06-08T13:22:09.029Z,19.30
2019-06-08T13:24:37.659Z,19.20
2019-06-08T13:27:06.444Z,19.50
2019-06-08T13:29:34.908Z,19.20
2019-06-08T13:32:03.395Z,19.30
2019-06-08T13:34:32.132Z,19.10
2019-06-08T13:36:59.910Z,19.60
2019-06-08T13:39:28.884Z,19.50
2019-06-08T13:41:57.159Z,19.40
2019-06-08T13:44:27.803Z,19.20
2019-06-08T13:46:57.632Z,19.40
2019-06-08T13:49:29.597Z,19.70
2019-06-08T13:51:53.772Z,19.80
2019-06-08T13:54:22.749Z,19.80
2019-06-08T13:56:50.816Z,20.20
2019-06-08T13:59:24.238Z,19.70
2019-06-08T14:01:49.623Z,19.60
2019-06-08T14:04:19.450Z,19.70
2019-06-08T14:06:50.561Z,19.80
2019-06-08T14:09:20.697Z,19.70
2019-06-08T14:11:48.439Z,19.70
2019-06-08T14:14:19.587Z,19.90
2019-06-08T14:16:50.387Z,19.80
2019-06-08T14:19:19.356Z,20.00
2019-06-08T14:21:47.701Z,20.00
2019-06-08T14:24:18.244Z,19.90
2019-06-08T14:26:48.511Z,20.10
2019-06-08T14:29:19.707Z,19.90
2019-06-08T14:31:47.215Z,19.90
2019-06-08T14:34:17.786Z,19.80
2019-06-08T14:36:45.866Z,19.80
2019-06-08T14:39:14.483Z,19.90
2019-06-08T14:41:43.184Z,20.00
2019-06-08T14:44:11.747Z,20.30
2019-06-08T14:46:41.448Z,19.80
2019-06-08T14:49:10.419Z,19.80
2019-06-08T14:51:51.644Z,19.90
2019-06-08T14:54:24.367Z,20.00
2019-06-08T14:56:50.308Z,19.90
2019-06-08T14:59:20.248Z,19.70
2019-06-08T15:01:48.748Z,19.80
2019-06-08T15:04:20.271Z,19.80
2019-06-08T15:06:48.782Z,19.60
2019-06-08T15:09:17.826Z,19.60
2019-06-08T15:11:48.058Z,19.40
2019-06-08T15:14:16.211Z,19.30
2019-06-08T15:16:44.398Z,19.50
2019-06-08T15:19:12.578Z,19.80
2019-06-08T15:21:40.761Z,19.60
2019-06-08T15:24:09.045Z,19.60
2019-06-08T15:26:44.925Z,19.60
2019-06-08T15:29:07.979Z,19.40
2019-06-08T15:31:36.344Z,19.40
2019-06-08T15:34:04.536Z,19.40
2019-06-08T15:36:32.858Z,19.20
2019-06-08T15:39:01.375Z,19.20
2019-06-08T15:41:31.292Z,18.90
2019-06-08T15:44:00.435Z,18.90
2019-06-08T15:46:30.403Z,18.40
2019-06-08T15:48:57.640Z,17.80
2019-06-08T15:51:24.811Z,17.50
2019-06-08T15:53:53.276Z,17.50
2019-06-08T15:56:37.494Z,17.50
2019-06-08T15:58:51.743Z,17.60
2019-06-08T16:01:20.158Z,17.50
2019-06-08T16:03:50.325Z,17.60
2019-06-08T16:06:18.732Z,17.60
2019-06-08T16:08:47.056Z,17.60
2019-06-08T16:11:15.626Z,17.60
2019-06-08T16:13:44.279Z,17.80
2019-06-08T16:16:12.549Z,17.90
2019-06-08T16:18:40.930Z,18.00
2019-06-08T16:21:09.180Z,17.80
2019-06-08T16:23:38.422Z,17.90
2019-06-08T16:26:06.644Z,17.50
2019-06-08T16:28:36.213Z,17.40
2019-06-08T16:31:05.570Z,17.30
2019-06-08T16:33:33.422Z,17.00
2019-06-08T16:36:02.048Z,17.10
2019-06-08T16:38:30.426Z,16.90
2019-06-08T16:40:58.888Z,17.00
2019-06-08T16:43:27.094Z,17.00
2019-06-08T16:45:55.303Z,17.00
2019-06-08T16:48:23.534Z,17.10
2019-06-08T16:50:51.699Z,17.10
2019-06-08T16:53:19.975Z,17.00
2019-06-08T16:55:48.274Z,16.80
2019-06-08T16:58:16.501Z,16.60
2019-06-08T17:00:44.588Z,16.40
2019-06-08T17:03:12.944Z,16.50
2019-06-08T17:05:40.159Z,16.30
2019-06-08T17:08:08.754Z,16.30
2019-06-08T17:10:37.209Z,16.30
2019-06-08T17:13:05.475Z,16.30
2019-06-08T17:15:34.179Z,16.30
2019-06-08T17:18:02.741Z,16.20
2019-06-08T17:20:32.051Z,16.30
2019-06-08T17:23:00.518Z,16.00
2019-06-08T17:25:30.271Z,16.20
2019-06-08T17:27:58.031Z,16.20
2019-06-08T17:30:25.548Z,16.10
2019-06-08T17:32:53.939Z,16.00
2019-06-08T17:35:22.449Z,16.10
2019-06-08T17:37:49.911Z,15.90
2019-06-08T17:40:18.426Z,15.90
2019-06-08T17:42:46.812Z,15.80
2019-06-08T17:45:15.133Z,15.80
2019-06-08T17:47:43.449Z,15.90
2019-06-08T17:50:11.948Z,15.90
2019-06-08T17:52:41.033Z,16.00
2019-06-08T17:55:10.222Z,16.00
2019-06-08T17:57:48.506Z,15.90
2019-06-08T18:00:11.003Z,15.70
2019-06-08T18:02:42.070Z,15.70
2019-06-08T18:05:09.027Z,15.80
2019-06-08T18:07:39.994Z,15.90
2019-06-08T18:10:07.627Z,16.00
2019-06-08T18:12:41.138Z,15.70
2019-06-08T18:15:09.121Z,15.60
2019-06-08T18:17:41.615Z,15.50
2019-06-08T18:20:11.462Z,15.50
2019-06-08T18:22:44.412Z,15.60
2019-06-08T18:25:14.099Z,15.60
2019-06-08T18:27:46.790Z,15.70
2019-06-08T18:30:13.020Z,15.70
2019-06-08T18:32:46.329Z,15.60
2019-06-08T18:35:18.045Z,15.50
2019-06-08T18:37:46.206Z,15.60
2019-06-08T18:40:17.723Z,15.30
2019-06-08T18:42:48.796Z,15.40
2019-06-08T18:45:18.163Z,15.40
2019-06-08T18:47:48.382Z,15.50
2019-06-08T18:50:17.313Z,15.60
2019-06-08T18:52:47.286Z,15.70
2019-06-08T18:55:18.238Z,15.80
2019-06-08T18:57:49.028Z,15.90
2019-06-08T19:00:23.984Z,15.90
2019-06-08T19:02:54.457Z,15.90
2019-06-08T19:05:21.311Z,15.90
2019-06-08T19:07:51.667Z,15.90
2019-06-08T19:10:29.932Z,16.00
2019-06-08T19:12:58.663Z,16.00
2019-06-08T19:15:31.595Z,15.90
2019-06-08T19:17:59.771Z,15.90
2019-06-08T19:20:28.409Z,15.90
2019-06-08T19:22:57.990Z,15.90
2019-06-08T19:25:27.177Z,15.90
2019-06-08T19:27:57.779Z,16.00
2019-06-08T19:30:28.137Z,16.00
2019-06-08T19:32:57.875Z,16.10
2019-06-08T19:35:27.388Z,16.10
2019-06-08T19:37:58.166Z,16.10
2019-06-08T19:40:27.185Z,16.10
2019-06-08T19:43:00.991Z,16.20
2019-06-08T19:45:28.835Z,16.20
2019-06-08T19:47:57.724Z,16.00
2019-06-08T19:50:28.675Z,16.10
2019-06-08T19:52:58.098Z,15.90
2019-06-08T19:55:30.916Z,16.00
2019-06-08T19:57:59.474Z,16.00
2019-06-08T20:00:28.414Z,15.90
2019-06-08T20:02:58.292Z,15.80
2019-06-08T20:05:33.287Z,16.00
2019-06-08T20:08:01.022Z,16.10
2019-06-08T20:10:28.619Z,15.80
2019-06-08T20:12:57.522Z,15.70
2019-06-08T20:15:26.006Z,15.60
2019-06-08T20:17:57.970Z,15.40
2019-06-08T20:20:27.891Z,15.40
2019-06-08T20:22:58.348Z,15.50
2019-06-08T20:25:27.785Z,15.30
2019-06-08T20:27:55.149Z,14.90
2019-06-08T20:30:24.338Z,15.00
2019-06-08T20:32:53.161Z,15.00
2019-06-08T20:35:21.530Z,14.90
2019-06-08T20:37:50.006Z,14.80
2019-06-08T20:40:18.555Z,14.60
2019-06-08T20:42:53.310Z,14.60
2019-06-08T20:45:21.096Z,14.70
2019-06-08T20:47:51.015Z,14.70
2019-06-08T20:50:18.452Z,15.10
2019-06-08T20:52:47.289Z,14.90
2019-06-08T20:55:17.622Z,14.50
2019-06-08T20:57:49.017Z,14.50
2019-06-08T21:00:16.824Z,14.60
2019-06-08T21:02:46.384Z,14.50
2019-06-08T21:05:18.375Z,14.50
2019-06-08T21:07:49.505Z,14.50
2019-06-08T21:10:17.492Z,14.40
2019-06-08T21:12:49.567Z,14.40
2019-06-08T21:15:22.844Z,14.30
2019-06-08T21:17:52.370Z,14.30
2019-06-08T21:20:21.134Z,14.40
2019-06-08T21:22:52.356Z,14.10
2019-06-08T21:25:20.469Z,14.00
2019-06-08T21:27:51.154Z,14.10
2019-06-08T21:30:24.337Z,13.90
2019-06-08T21:32:53.487Z,14.00
2019-06-08T21:35:21.738Z,14.00
2019-06-08T21:37:53.409Z,14.10
2019-06-08T21:40:20.877Z,14.10
2019-06-08T21:42:52.140Z,14.10
2019-06-08T21:45:19.215Z,14.20
2019-06-08T21:47:50.121Z,14.10
2019-06-08T21:50:18.623Z,14.10
2019-06-08T21:52:48.938Z,14.00
2019-06-08T21:55:17.777Z,14.10
2019-06-08T21:57:49.529Z,14.00
2019-06-08T22:00:38.496Z,14.00
2019-06-08T22:02:53.679Z,14.00
2019-06-08T22:05:20.906Z,14.40
2019-06-08T22:07:50.074Z,14.00
2019-06-08T22:10:18.533Z,14.00
2019-06-08T22:12:52.387Z,14.30
2019-06-08T22:15:20.603Z,14.10
2019-06-08T22:17:51.999Z,13.90
2019-06-08T22:20:19.995Z,14.00
2019-06-08T22:22:47.597Z,14.00
2019-06-08T22:25:18.006Z,14.00
2019-06-08T22:27:47.187Z,14.00
2019-06-08T22:30:32.324Z,14.00
2019-06-08T22:32:47.559Z,14.00
2019-06-08T22:35:18.487Z,13.90
2019-06-08T22:37:48.039Z,13.90
2019-06-08T22:40:17.541Z,13.90
2019-06-08T22:42:45.034Z,13.90
2019-06-08T22:45:12.820Z,14.20
2019-06-08T22:47:40.674Z,13.90
2019-06-08T22:50:18.397Z,13.90
2019-06-08T22:52:47.725Z,13.90
2019-06-08T22:55:18.354Z,14.00
2019-06-08T22:57:44.916Z,13.90
2019-06-08T23:00:19.850Z,13.80
2019-06-08T23:02:43.774Z,13.80
2019-06-08T23:05:10.955Z,13.90
2019-06-08T23:07:38.264Z,13.90
2019-06-08T23:10:08.936Z,14.00
2019-06-08T23:12:41.675Z,14.10
2019-06-08T23:15:10.873Z,13.90
2019-06-08T23:17:39.128Z,13.80
2019-06-08T23:20:08.614Z,13.90
2019-06-08T23:22:38.628Z,13.80
2019-06-08T23:25:09.535Z,13.80
2019-06-08T23:27:38.449Z,13.70
2019-06-08T23:30:10.116Z,13.70
2019-06-08T23:32:38.762Z,13.70
2019-06-08T23:35:11.052Z,14.00
2019-06-08T23:37:38.273Z,13.70
2019-06-08T23:40:07.725Z,13.70
2019-06-08T23:42:38.390Z,13.70
2019-06-08T23:45:12.762Z,13.70
2019-06-08T23:47:40.451Z,13.90
2019-06-08T23:50:10.929Z,14.00
2019-06-08T23:52:39.440Z,13.80
2019-06-08T23:55:11.713Z,13.80
2019-06-08T23:57:40.056Z,13.70
